createdAt,value
2022-10-17T00:02:11.572Z,83.90
2022-10-17T00:04:38.228Z,83.90
2022-10-17T00:07:04.893Z,83.90
2022-10-17T00:09:31.627Z,84.00
2022-10-17T00:11:58.390Z,84.20
2022-10-17T00:14:25.122Z,84.20
2022-10-17T00:16:51.834Z,84.10
2022-10-17T00:19:18.686Z,84.20
2022-10-17T00:21:45.409Z,84.40
2022-10-17T00:24:12.096Z,84.20
2022-10-17T00:26:38.913Z,84.40
2022-10-17T00:29:06.053Z,84.40
2022-10-17T00:31:32.816Z,84.50
2022-10-17T00:33:59.505Z,84.50
2022-10-17T00:36:26.456Z,84.60
2022-10-17T00:38:55.112Z,84.70
2022-10-17T00:41:24.011Z,84.80
2022-10-17T00:44:03.790Z,84.90
2022-10-17T00:46:34.506Z,84.90
2022-10-17T00:49:07.077Z,85.10
2022-10-17T00:51:45.520Z,85.10
2022-10-17T00:54:13.367Z,85.20
2022-10-17T00:56:40.054Z,85.20
2022-10-17T00:59:08.759Z,85.20
2022-10-17T01:01:35.563Z,85.40
2022-10-17T01:04:02.328Z,85.40
2022-10-17T01:06:29.007Z,85.40
2022-10-17T01:08:55.878Z,85.50
2022-10-17T01:11:41.056Z,85.50
2022-10-17T01:14:15.542Z,85.50
2022-10-17T01:16:50.783Z,85.70
2022-10-17T01:19:32.693Z,85.80
2022-10-17T01:22:19.488Z,85.80
2022-10-17T01:24:54.025Z,85.80
2022-10-17T01:27:47.586Z,85.80
2022-10-17T01:30:28.959Z,85.90
2022-10-17T01:32:57.561Z,85.80
2022-10-17T01:35:43.156Z,85.80
2022-10-17T01:38:11.993Z,85.90
2022-10-17T01:40:43.122Z,85.90
2022-10-17T01:43:22.022Z,86.00
2022-10-17T01:46:20.704Z,86.00
2022-10-17T01:48:47.428Z,86.10
2022-10-17T01:51:21.488Z,86.10
2022-10-17T01:54:03.145Z,86.20
2022-10-17T01:56:30.821Z,86.40
2022-10-17T01:59:06.906Z,86.30
2022-10-17T02:01:33.815Z,86.30
2022-10-17T02:04:00.636Z,86.20
2022-10-17T02:06:27.321Z,86.30
2022-10-17T02:08:54.042Z,86.30
2022-10-17T02:11:22.057Z,86.30
2022-10-17T02:14:08.858Z,86.50
2022-10-17T02:16:54.107Z,86.50
2022-10-17T02:19:55.368Z,86.50
2022-10-17T02:22:27.701Z,86.50
2022-10-17T02:25:28.876Z,86.50
2022-10-17T02:28:14.377Z,86.50
2022-10-17T02:30:45.406Z,86.50
2022-10-17T02:33:49.220Z,86.50
2022-10-17T02:36:19.281Z,86.40
2022-10-17T02:38:46.005Z,86.50
2022-10-17T02:41:15.104Z,86.40
2022-10-17T02:43:41.843Z,86.50
2022-10-17T02:46:08.538Z,86.60
2022-10-17T02:48:38.561Z,86.60
2022-10-17T02:51:20.121Z,86.60
2022-10-17T02:53:59.327Z,86.70
2022-10-17T02:56:25.961Z,86.60
2022-10-17T02:58:55.028Z,86.70
2022-10-17T03:01:21.734Z,86.80
2022-10-17T03:03:48.747Z,86.70
2022-10-17T03:06:15.798Z,86.70
2022-10-17T03:08:42.495Z,86.80
2022-10-17T03:11:09.184Z,87.60
2022-10-17T03:13:38.998Z,86.80
2022-10-17T03:16:06.710Z,86.80
2022-10-17T03:18:33.475Z,86.90
2022-10-17T03:21:00.216Z,86.90
2022-10-17T03:23:26.944Z,86.80
2022-10-17T03:25:53.629Z,87.00
2022-10-17T03:28:20.412Z,86.90
2022-10-17T03:30:47.115Z,87.00
2022-10-17T03:33:13.818Z,87.00
2022-10-17T03:35:40.542Z,87.00
2022-10-17T03:38:07.383Z,87.00
2022-10-17T03:40:34.060Z,87.10
2022-10-17T03:43:00.729Z,87.10
2022-10-17T03:45:27.423Z,87.10
2022-10-17T03:47:54.086Z,87.10
2022-10-17T03:50:20.761Z,87.00
2022-10-17T03:52:48.298Z,87.10
2022-10-17T03:55:15.600Z,87.10
2022-10-17T03:57:44.790Z,87.10
2022-10-17T04:00:12.948Z,87.10
2022-10-17T04:02:40.028Z,87.10
2022-10-17T04:05:07.478Z,87.10
2022-10-17T04:07:34.224Z,87.10
2022-10-17T04:10:00.913Z,87.10
2022-10-17T04:12:27.878Z,87.00
2022-10-17T04:14:54.783Z,87.00
2022-10-17T04:17:21.603Z,87.00
2022-10-17T04:19:49.595Z,87.00
2022-10-17T04:22:16.280Z,87.00
2022-10-17T04:24:42.984Z,87.00
2022-10-17T04:27:09.663Z,87.00
2022-10-17T04:29:36.369Z,87.00
2022-10-17T04:32:03.121Z,87.00
2022-10-17T04:34:29.842Z,86.90
2022-10-17T04:36:56.531Z,87.00
2022-10-17T04:39:23.264Z,86.90
2022-10-17T04:41:49.970Z,86.90
2022-10-17T04:44:16.612Z,87.00
2022-10-17T04:46:43.293Z,86.90
2022-10-17T04:49:09.956Z,86.90
2022-10-17T04:51:36.713Z,87.00
2022-10-17T04:54:03.390Z,87.00
2022-10-17T04:56:30.113Z,87.00
2022-10-17T04:58:57.980Z,87.00
2022-10-17T05:01:24.960Z,87.00
2022-10-17T05:03:51.963Z,87.10
2022-10-17T05:06:20.565Z,87.00
2022-10-17T05:08:47.443Z,87.10
2022-10-17T05:11:19.556Z,87.10
2022-10-17T05:13:50.458Z,87.10
2022-10-17T05:16:17.172Z,87.10
2022-10-17T05:18:43.861Z,87.10
2022-10-17T05:21:10.616Z,87.10
2022-10-17T05:23:37.277Z,87.10
2022-10-17T05:26:04.005Z,87.10
2022-10-17T05:28:31.006Z,87.10
2022-10-17T05:30:57.680Z,87.10
2022-10-17T05:33:24.337Z,87.10
2022-10-17T05:35:51.133Z,87.10
2022-10-17T05:38:17.886Z,88.00
2022-10-17T05:40:44.599Z,87.20
2022-10-17T05:43:11.451Z,87.10
2022-10-17T05:45:38.166Z,87.10
2022-10-17T05:48:06.879Z,87.20
2022-10-17T05:50:33.598Z,87.30
2022-10-17T05:53:00.377Z,87.30
2022-10-17T05:55:27.174Z,87.40
2022-10-17T05:57:53.824Z,87.40
2022-10-17T06:00:21.379Z,87.40
2022-10-17T06:02:48.200Z,87.50
2022-10-17T06:05:15.042Z,87.50
2022-10-17T06:07:41.838Z,87.50
2022-10-17T06:10:09.064Z,87.50
2022-10-17T06:12:35.749Z,87.50
2022-10-17T06:15:02.503Z,87.50
2022-10-17T06:17:29.191Z,87.50
2022-10-17T06:19:56.352Z,87.60
2022-10-17T06:22:23.366Z,87.60
2022-10-17T06:24:50.037Z,87.60
2022-10-17T06:27:16.790Z,87.70
2022-10-17T06:29:43.449Z,87.80
2022-10-17T06:32:12.741Z,87.80
2022-10-17T06:34:43.588Z,87.80
2022-10-17T06:37:10.298Z,87.90
2022-10-17T06:39:37.022Z,87.80
2022-10-17T06:42:04.144Z,88.00
2022-10-17T06:44:31.015Z,88.00
2022-10-17T06:46:58.762Z,88.00
2022-10-17T06:49:25.501Z,88.10
2022-10-17T06:51:52.227Z,88.10
2022-10-17T06:54:18.952Z,88.10
2022-10-17T06:56:45.737Z,88.10
2022-10-17T06:59:12.546Z,88.20
2022-10-17T07:01:41.770Z,88.10
2022-10-17T07:04:11.260Z,88.10
2022-10-17T07:06:38.559Z,88.10
2022-10-17T07:09:05.590Z,88.10
2022-10-17T07:11:32.530Z,89.00
2022-10-17T07:13:59.173Z,88.20
2022-10-17T07:16:25.840Z,88.20
2022-10-17T07:18:52.618Z,88.20
2022-10-17T07:21:19.349Z,88.20
2022-10-17T07:23:46.084Z,89.00
2022-10-17T07:26:14.361Z,89.00
2022-10-17T07:28:42.882Z,88.20
2022-10-17T07:31:11.342Z,88.10
2022-10-17T07:33:38.032Z,88.00
2022-10-17T07:36:05.206Z,88.00
2022-10-17T07:38:32.022Z,88.00
2022-10-17T07:41:01.098Z,88.00
2022-10-17T07:43:27.922Z,87.90
2022-10-17T07:45:54.659Z,88.00
2022-10-17T07:48:21.969Z,87.90
2022-10-17T07:50:48.836Z,88.00
2022-10-17T07:53:15.559Z,88.00
2022-10-17T07:55:42.385Z,88.00
2022-10-17T07:58:09.278Z,88.00
2022-10-17T08:00:36.868Z,88.00
2022-10-17T08:03:04.142Z,88.00
2022-10-17T08:05:31.117Z,88.00
2022-10-17T08:07:57.805Z,87.90
2022-10-17T08:10:24.470Z,87.80
2022-10-17T08:12:51.164Z,87.70
2022-10-17T08:15:17.928Z,87.80
2022-10-17T08:17:44.587Z,87.60
2022-10-17T08:20:11.678Z,87.60
2022-10-17T08:22:38.384Z,87.60
2022-10-17T08:25:05.531Z,87.50
2022-10-17T08:27:35.386Z,87.40
2022-10-17T08:30:04.139Z,87.40
2022-10-17T08:32:31.303Z,87.20
2022-10-17T08:34:58.229Z,87.10
2022-10-17T08:37:24.943Z,87.20
2022-10-17T08:39:54.367Z,87.20
2022-10-17T08:42:40.326Z,87.10
2022-10-17T08:45:10.080Z,86.90
2022-10-17T08:47:39.623Z,86.90
2022-10-17T08:50:07.912Z,86.90
2022-10-17T08:52:55.923Z,86.80
2022-10-17T08:55:48.443Z,86.80
2022-10-17T08:58:27.799Z,86.70
2022-10-17T09:01:19.617Z,86.60
2022-10-17T09:03:59.094Z,86.60
2022-10-17T09:06:30.663Z,86.50
2022-10-17T09:09:03.764Z,86.40
2022-10-17T09:11:54.964Z,86.30
2022-10-17T09:14:37.532Z,85.80
2022-10-17T09:17:22.740Z,85.50
2022-10-17T09:20:03.806Z,85.10
2022-10-17T09:22:38.785Z,85.00
2022-10-17T09:25:09.610Z,84.80
2022-10-17T09:27:42.698Z,84.50
2022-10-17T09:30:44.738Z,84.20
2022-10-17T09:33:28.506Z,84.00
2022-10-17T09:36:09.403Z,83.80
2022-10-17T09:38:45.729Z,83.70
2022-10-17T09:41:50.252Z,83.50
2022-10-17T09:44:29.792Z,83.30
2022-10-17T09:47:34.260Z,83.20
2022-10-17T09:50:01.598Z,82.90
2022-10-17T09:52:35.535Z,82.90
2022-10-17T09:55:06.997Z,82.60
2022-10-17T09:57:58.158Z,82.30
2022-10-17T10:00:32.546Z,81.20
2022-10-17T10:03:15.409Z,80.80
2022-10-17T10:05:42.183Z,78.60
2022-10-17T10:08:14.818Z,78.90
2022-10-17T10:10:41.562Z,78.10
2022-10-17T10:13:16.972Z,76.40
2022-10-17T10:15:45.227Z,75.20
2022-10-17T10:21:06.287Z,72.40
2022-10-17T10:23:33.131Z,72.60
2022-10-17T10:26:04.140Z,72.10
2022-10-17T10:28:35.345Z,72.30
2022-10-17T10:31:06.779Z,71.40
2022-10-17T10:33:36.746Z,70.70
2022-10-17T10:36:05.874Z,70.10
2022-10-17T10:38:32.916Z,70.30
2022-10-17T10:41:02.596Z,70.00
2022-10-17T10:44:02.291Z,70.00
2022-10-17T10:46:29.021Z,69.70
2022-10-17T10:49:00.267Z,69.40
2022-10-17T10:51:44.094Z,68.50
2022-10-17T10:54:10.800Z,67.50
2022-10-17T10:56:41.489Z,66.60
2022-10-17T10:59:19.617Z,65.40
2022-10-17T11:01:49.145Z,64.40
2022-10-17T11:04:47.533Z,63.80
2022-10-17T11:07:19.644Z,63.40
2022-10-17T11:09:49.198Z,62.70
2022-10-17T11:12:23.613Z,62.20
2022-10-17T11:15:39.976Z,61.40
2022-10-17T11:18:26.859Z,60.30
2022-10-17T11:21:15.150Z,60.60
2022-10-17T11:23:48.152Z,61.10
2022-10-17T11:26:28.979Z,60.60
2022-10-17T11:28:56.738Z,60.10
2022-10-17T11:31:25.446Z,60.00
2022-10-17T11:33:57.839Z,59.40
2022-10-17T11:36:32.666Z,58.40
2022-10-17T11:39:04.179Z,58.00
2022-10-17T11:41:41.982Z,57.60
2022-10-17T11:44:17.970Z,57.10
2022-10-17T11:46:44.670Z,57.10
2022-10-17T11:49:20.503Z,57.10
2022-10-17T11:52:02.383Z,56.80
2022-10-17T11:54:38.318Z,56.80
2022-10-17T11:57:19.612Z,57.10
2022-10-17T11:59:52.311Z,56.80
2022-10-17T12:02:46.146Z,57.10
2022-10-17T12:05:34.165Z,56.50
2022-10-17T12:08:03.572Z,56.70
2022-10-17T12:10:48.523Z,57.30
2022-10-17T12:13:33.605Z,57.20
2022-10-17T12:16:18.744Z,57.50
2022-10-17T12:19:09.335Z,57.60
2022-10-17T12:21:55.091Z,57.70
2022-10-17T12:24:57.859Z,57.50
2022-10-17T12:27:43.511Z,57.60
2022-10-17T12:30:13.260Z,57.50
2022-10-17T12:33:07.805Z,57.50
2022-10-17T12:35:36.591Z,57.30
2022-10-17T12:38:14.044Z,57.60
2022-10-17T12:40:48.473Z,57.80
2022-10-17T12:43:15.645Z,57.80
2022-10-17T12:45:51.983Z,57.80
2022-10-17T12:48:33.901Z,57.40
2022-10-17T12:54:00.722Z,56.60
2022-10-17T12:56:34.667Z,56.10
2022-10-17T12:59:01.407Z,55.30
2022-10-17T13:01:30.503Z,54.90
2022-10-17T13:03:57.284Z,54.30
2022-10-17T13:06:25.827Z,53.90
2022-10-17T13:09:04.457Z,53.50
2022-10-17T13:11:33.707Z,52.80
2022-10-17T13:14:02.136Z,53.30
2022-10-17T13:16:32.452Z,53.00
2022-10-17T13:18:59.785Z,52.90
2022-10-17T13:21:26.561Z,53.20
2022-10-17T13:23:53.336Z,53.60
2022-10-17T13:26:22.255Z,54.00
2022-10-17T13:29:11.995Z,54.40
2022-10-17T13:31:40.275Z,54.80
2022-10-17T13:34:18.231Z,55.40
2022-10-17T13:36:48.838Z,55.50
2022-10-17T13:39:32.435Z,55.60
2022-10-17T13:42:05.435Z,55.10
2022-10-17T13:44:35.407Z,55.20
2022-10-17T13:47:02.143Z,54.80
2022-10-17T13:49:38.022Z,54.90
2022-10-17T13:52:06.446Z,55.00
2022-10-17T13:54:43.969Z,55.20
2022-10-17T13:57:40.518Z,55.20
2022-10-17T14:00:15.326Z,55.30
2022-10-17T14:02:42.125Z,55.90
2022-10-17T14:05:18.107Z,55.90
2022-10-17T14:08:09.991Z,55.90
2022-10-17T14:10:34.663Z,55.90
2022-10-17T14:13:01.430Z,55.90
2022-10-17T14:15:29.392Z,55.90
2022-10-17T14:18:08.140Z,55.70
2022-10-17T14:23:40.226Z,55.90
2022-10-17T14:26:10.614Z,56.00
2022-10-17T14:28:37.547Z,56.30
2022-10-17T14:31:34.264Z,56.40
2022-10-17T14:34:07.033Z,56.50
2022-10-17T14:36:40.343Z,57.10
2022-10-17T14:39:13.433Z,57.30
2022-10-17T14:41:43.965Z,57.50
2022-10-17T14:44:33.204Z,57.40
2022-10-17T14:47:24.050Z,57.30
2022-10-17T14:49:52.630Z,57.50
2022-10-17T14:52:19.393Z,57.70
2022-10-17T14:54:49.411Z,57.90
2022-10-17T14:57:29.843Z,58.10
2022-10-17T14:59:56.730Z,58.20
2022-10-17T15:02:25.076Z,58.30
2022-10-17T15:04:52.107Z,58.40
2022-10-17T15:07:18.860Z,58.40
2022-10-17T15:09:47.109Z,58.30
2022-10-17T15:12:19.301Z,58.30
2022-10-17T15:14:46.039Z,58.40
2022-10-17T15:17:16.000Z,58.40
2022-10-17T15:19:42.764Z,58.30
2022-10-17T15:22:09.441Z,58.30
2022-10-17T15:24:36.164Z,58.30
2022-10-17T15:27:02.868Z,58.40
2022-10-17T15:29:29.629Z,58.40
2022-10-17T15:31:56.317Z,58.50
2022-10-17T15:34:23.191Z,58.60
2022-10-17T15:36:51.181Z,58.80
2022-10-17T15:39:18.099Z,58.90
2022-10-17T15:41:44.790Z,59.60
2022-10-17T15:44:11.497Z,58.90
2022-10-17T15:46:38.133Z,59.00
2022-10-17T15:49:05.801Z,59.00
2022-10-17T15:51:32.766Z,59.10
2022-10-17T15:53:59.597Z,59.20
2022-10-17T15:56:31.187Z,59.30
2022-10-17T15:58:57.930Z,59.20
2022-10-17T16:01:27.259Z,59.20
2022-10-17T16:03:54.213Z,59.30
2022-10-17T16:06:21.335Z,59.40
2022-10-17T16:08:48.316Z,59.50
2022-10-17T16:11:17.482Z,59.70
2022-10-17T16:13:47.281Z,59.80
2022-10-17T16:16:13.926Z,60.00
2022-10-17T16:18:40.836Z,60.10
2022-10-17T16:21:11.650Z,60.10
2022-10-17T16:23:38.418Z,60.30
2022-10-17T16:26:05.365Z,60.40
2022-10-17T16:28:32.160Z,60.80
2022-10-17T16:30:58.968Z,61.00
2022-10-17T16:33:25.813Z,61.20
2022-10-17T16:35:52.535Z,61.40
2022-10-17T16:38:19.204Z,61.70
2022-10-17T16:40:45.911Z,61.90
2022-10-17T16:43:12.953Z,62.20
2022-10-17T16:45:39.751Z,62.40
2022-10-17T16:48:06.673Z,62.70
2022-10-17T16:50:33.334Z,62.90
2022-10-17T16:53:00.008Z,63.10
2022-10-17T16:55:26.664Z,63.20
2022-10-17T16:57:53.370Z,63.50
2022-10-17T17:00:20.503Z,63.70
2022-10-17T17:02:48.004Z,63.90
2022-10-17T17:05:14.932Z,64.20
2022-10-17T17:07:41.612Z,64.40
2022-10-17T17:10:08.746Z,64.60
2022-10-17T17:12:35.774Z,64.70
2022-10-17T17:15:02.613Z,64.90
2022-10-17T17:17:30.760Z,65.20
2022-10-17T17:20:04.207Z,65.40
2022-10-17T17:22:30.898Z,65.60
2022-10-17T17:24:57.669Z,65.80
2022-10-17T17:27:24.370Z,66.10
2022-10-17T17:29:51.084Z,66.20
2022-10-17T17:32:17.761Z,66.50
2022-10-17T17:34:44.674Z,66.60
2022-10-17T17:37:11.372Z,66.70
2022-10-17T17:39:38.211Z,66.90
2022-10-17T17:42:04.893Z,67.90
2022-10-17T17:44:31.627Z,67.30
2022-10-17T17:46:58.331Z,67.40
2022-10-17T17:49:25.006Z,67.60
2022-10-17T17:51:51.699Z,67.80
2022-10-17T17:54:18.371Z,68.00
2022-10-17T17:56:45.052Z,68.10
2022-10-17T17:59:12.387Z,68.30
2022-10-17T18:01:39.363Z,68.50
2022-10-17T18:04:07.380Z,68.70
2022-10-17T18:06:34.255Z,68.80
2022-10-17T18:09:00.983Z,69.00
2022-10-17T18:11:27.818Z,69.20
2022-10-17T18:13:56.066Z,69.30
2022-10-17T18:16:23.466Z,69.60
2022-10-17T18:18:50.308Z,69.70
2022-10-17T18:21:17.011Z,69.90
2022-10-17T18:23:45.055Z,70.00
2022-10-17T18:26:12.024Z,70.30
2022-10-17T18:31:14.090Z,70.40
2022-10-17T18:33:40.861Z,70.50
2022-10-17T18:36:10.570Z,70.80
2022-10-17T18:38:37.361Z,70.90
2022-10-17T18:41:30.582Z,71.00
2022-10-17T18:43:57.292Z,71.20
2022-10-17T18:46:33.466Z,71.30
2022-10-17T18:49:00.147Z,71.40
2022-10-17T18:51:27.166Z,71.40
2022-10-17T18:53:57.347Z,71.50
2022-10-17T18:56:24.115Z,71.70
2022-10-17T18:58:51.071Z,71.80
2022-10-17T19:01:19.387Z,72.00
2022-10-17T19:03:47.175Z,72.10
2022-10-17T19:06:15.053Z,72.30
2022-10-17T19:08:42.282Z,72.40
2022-10-17T19:11:11.970Z,72.50
2022-10-17T19:13:38.815Z,72.80
2022-10-17T19:16:09.919Z,72.80
2022-10-17T19:18:36.797Z,73.10
2022-10-17T19:21:04.635Z,73.20
2022-10-17T19:23:31.416Z,73.30
2022-10-17T19:26:08.125Z,73.30
2022-10-17T19:28:35.079Z,73.70
2022-10-17T19:31:01.885Z,73.70
2022-10-17T19:36:08.476Z,73.70
2022-10-17T19:38:35.227Z,74.00
2022-10-17T19:41:08.548Z,74.00
2022-10-17T19:43:42.015Z,74.20
2022-10-17T19:46:13.472Z,74.20
2022-10-17T19:48:40.150Z,74.20
2022-10-17T19:51:07.915Z,74.30
2022-10-17T19:53:34.977Z,74.40
2022-10-17T19:56:01.713Z,74.50
2022-10-17T19:58:28.411Z,74.60
2022-10-17T20:00:57.263Z,74.70
2022-10-17T20:03:24.777Z,74.70
2022-10-17T20:05:51.584Z,74.80
2022-10-17T20:08:18.990Z,74.90
2022-10-17T20:10:45.834Z,75.00
2022-10-17T20:13:13.037Z,75.00
2022-10-17T20:15:39.773Z,75.20
2022-10-17T20:18:06.819Z,75.10
2022-10-17T20:20:36.723Z,75.20
2022-10-17T20:23:03.986Z,75.30
2022-10-17T20:25:30.756Z,75.30
2022-10-17T20:27:57.508Z,75.40
2022-10-17T20:30:24.194Z,75.40
2022-10-17T20:32:55.070Z,75.40
2022-10-17T20:35:22.247Z,75.60
2022-10-17T20:37:48.986Z,75.60
2022-10-17T20:40:44.211Z,75.70
2022-10-17T20:43:03.545Z,75.80
2022-10-17T20:45:45.164Z,75.90
2022-10-17T20:48:17.154Z,75.90
2022-10-17T20:50:43.986Z,75.90
2022-10-17T20:53:35.492Z,75.90
2022-10-17T20:56:08.687Z,76.00
2022-10-17T20:58:35.638Z,76.10
2022-10-17T21:01:09.778Z,76.00
2022-10-17T21:03:39.810Z,76.20
2022-10-17T21:06:09.329Z,76.20
2022-10-17T21:08:36.026Z,76.10
2022-10-17T21:11:29.462Z,76.10
2022-10-17T21:13:58.544Z,76.30
2022-10-17T21:16:25.275Z,76.30
2022-10-17T21:18:52.046Z,76.40
2022-10-17T21:21:23.076Z,76.40
2022-10-17T21:23:50.584Z,76.50
2022-10-17T21:26:17.929Z,76.50
2022-10-17T21:28:45.204Z,76.80
2022-10-17T21:31:20.046Z,76.60
2022-10-17T21:33:53.033Z,76.60
2022-10-17T21:36:19.926Z,76.70
2022-10-17T21:51:25.564Z,75.90
2022-10-17T21:53:53.241Z,77.90
2022-10-17T22:45:07.167Z,74.90
2022-10-17T22:47:33.915Z,80.40
2022-10-17T22:50:00.589Z,80.20
2022-10-17T22:52:28.263Z,80.10
2022-10-17T22:54:55.087Z,79.90
2022-10-17T22:57:21.748Z,79.70
2022-10-17T22:59:48.399Z,79.60
2022-10-17T23:02:15.057Z,79.50
2022-10-17T23:04:41.739Z,79.60
2022-10-17T23:07:08.695Z,79.60
2022-10-17T23:09:35.352Z,79.70
2022-10-17T23:12:02.057Z,79.50
2022-10-17T23:14:28.724Z,79.50
2022-10-17T23:16:55.417Z,79.50
2022-10-17T23:19:22.103Z,79.50
2022-10-17T23:21:48.768Z,79.50
2022-10-17T23:24:15.489Z,79.40
2022-10-17T23:26:42.145Z,79.40
2022-10-17T23:29:08.924Z,79.40
2022-10-17T23:31:35.643Z,80.20
2022-10-17T23:34:02.280Z,79.30
2022-10-17T23:36:28.997Z,79.20
2022-10-17T23:38:58.442Z,79.20
2022-10-17T23:41:25.463Z,79.10
2022-10-17T23:43:52.117Z,79.20
2022-10-17T23:46:18.813Z,79.20
2022-10-17T23:48:45.543Z,79.20
2022-10-17T23:51:12.260Z,79.20
2022-10-17T23:53:39.316Z,79.20
2022-10-17T23:56:06.583Z,79.20
2022-10-17T23:58:33.412Z,79.30
